map of BCB home
BCB - Airport
Location
City:  Blacksburg, Virginia, United States
Name:Virginia Tech / Montgomery Executive Airport
ICAO:KBCB
IATA:BCB
FAA LID:BCB

Details
Type:Airport (Airfield)
Use:Public/Civil
Latitude:3712'28"N (37.207639)
Longitude:8024'28"W (-80.407832)
Datum:WGS 1984
Elevation:2131 ft (650 m)
Variation:8.38W (WMM2015 magnetic declination)
-0.04 annual change
Runways:1
Longest:4539 × 100 ft (1383 × 30.5 m), paved

Time
Time Zone:UTC-5 (DST-4)
Local Time:

Weather
METAR:KBCB 210610Z AUTO 00000KT 10SM CLR 10/09 A3034 RMK AO2 T00950092
TAF:KBCB 210520Z 2106/2206 00000KT P6SM SKC
FM210900 00000KT 4SM BR SCT008
FM211100 00000KT 2SM BR SCT008
FM211300 00000KT P6SM SCT250

Related Locations
Nearby:
Farthest:MQZ: 11542 mi / 18574 km
Margaret River [Margaret River Airport], WA, AU

Find:

   beyond  
but within

Other Information
Maps:
NOTAMs:
Links:
Sources:

  
flag of United States
flag of Virginia
  

Sectional Chart

Flight Planning
at skyvector.com

Satellite Image

Google Maps Satellite view

 

Copyright © 2004-2017 Karl L. Swartz. All rights reserved.
The Great Circle Mapper name and logo are trademarks of the Great Circle Mapper.
All other trademarks mentioned herein belong to their respective owners.
Please see credits for attibutions and further copyright information.

  Follow gcmap on Facebook Follow gcmap on Twitter Follow gcmap on Google+ GCmap on LinkedIn

hCard Microformat

Geo Microformat